CheckWX is a tool to help pilots better visualize weather data.  It is not intended as a substitute for an official pre-flight weather briefing.

13:06:53 UTC

LKMT TAF
Ostrava Leos Janáček Airport
Ostrava, Czech Republic
TAF LKMT 131100Z 1312/1418 21010KT 9999 SCT036 TEMPO 1312/1418 23018G30KT PROB30 TEMPO 1312/1412 6000 -SNRA BKN020 BECMG 1412/1414 BKN020 TEMPO 1414/1418 -RA PROB30 TEMPO 1414/1418 7000 RA BKN014

Dec-13@
12:00 UTC

Dec-13 @ 12:00 UTC

Dec-14@
12:00 UTC

Dec-14 @ 12:00 UTC

TAF LKMT 131100Z 1312/1418 21010KT 9999 SCT036
Wind
  • 210° at 10 KTS
Cloud Levels
  • Scattered at 3,600' AGL

Dec-13@
12:00 UTC

Dec-13 @ 12:00 UTC

Dec-14@
12:00 UTC

Dec-14 @ 12:00 UTC

PROB30 TEMPO 1312/1412 6000 -SNRA BKN020

Temporary - 30% Likelihood

Temporary - 30% Likelihood during this time.

Conditions
Light Snow, Light Rain
Cloud Levels
  • Broken at 2,000' AGL

Dec-13@
12:00 UTC

Dec-13 @ 12:00 UTC

Dec-14@
18:00 UTC

Dec-14 @ 18:00 UTC

TEMPO 1312/1418 23018G30KT

Temporary

Temporary Changes expected for less than half the time period

Wind
  • 230° at 18 KTS
  • {Gusting to 30 KTS

Dec-14@
12:00 UTC

Dec-14 @ 12:00 UTC

Dec-14@
18:00 UTC

Dec-14 @ 18:00 UTC

BECMG 1412/1414 BKN020

Becoming

Becoming Conditions expected by Sat, Dec 14, 2019 @ 14:00 UTC

Wind
  • 210° at 10 KTS
Cloud Levels
  • Broken at 2,000' AGL

Dec-14@
14:00 UTC

Dec-14 @ 14:00 UTC

Dec-14@
18:00 UTC

Dec-14 @ 18:00 UTC

TEMPO 1414/1418 -RA

Temporary

Temporary Changes expected for less than half the time period

Conditions
Light Rain

Dec-14@
14:00 UTC

Dec-14 @ 14:00 UTC

Dec-14@
18:00 UTC

Dec-14 @ 18:00 UTC

PROB30 TEMPO 1414/1418 7000 RA BKN014

Temporary - 30% Likelihood

Temporary - 30% Likelihood during this time.

Conditions
Rain
Cloud Levels
  • Broken at 1,400' AGL